sensor_id;sensor_type;location;lat;lon;timestamp;P1;P2;P0
72307;PMS5003;60257;42.638;23.376;2023-05-10T00:00:40;14.33;14.33;8.33
72307;PMS5003;60257;42.638;23.376;2023-05-10T00:03:06;16.00;15.00;9.67
72307;PMS5003;60257;42.638;23.376;2023-05-10T00:05:32;20.67;18.67;10.67
72307;PMS5003;60257;42.638;23.376;2023-05-10T00:07:57;12.67;12.67;7.00
72307;PMS5003;60257;42.638;23.376;2023-05-10T00:10:23;13.67;13.67;8.00
72307;PMS5003;60257;42.638;23.376;2023-05-10T00:12:48;14.33;13.33;8.00
72307;PMS5003;60257;42.638;23.376;2023-05-10T00:15:14;15.33;15.33;9.00
72307;PMS5003;60257;42.638;23.376;2023-05-10T00:17:39;14.67;14.00;9.00
72307;PMS5003;60257;42.638;23.376;2023-05-10T00:20:05;18.33;18.33;10.00
72307;PMS5003;60257;42.638;23.376;2023-05-10T00:22:31;13.00;12.67;8.33
72307;PMS5003;60257;42.638;23.376;2023-05-10T00:24:57;11.33;11.33;7.00
72307;PMS5003;60257;42.638;23.376;2023-05-10T00:27:23;18.00;17.33;10.00
72307;PMS5003;60257;42.638;23.376;2023-05-10T00:29:49;20.00;17.00;10.00
72307;PMS5003;60257;42.638;23.376;2023-05-10T00:32:14;20.67;18.33;9.00
72307;PMS5003;60257;42.638;23.376;2023-05-10T00:34:40;17.00;16.00;9.00
72307;PMS5003;60257;42.638;23.376;2023-05-10T00:37:05;19.67;19.67;11.00
72307;PMS5003;60257;42.638;23.376;2023-05-10T00:39:31;14.67;14.00;8.00
72307;PMS5003;60257;42.638;23.376;2023-05-10T00:41:56;19.00;18.67;11.00
72307;PMS5003;60257;42.638;23.376;2023-05-10T00:44:22;14.67;14.67;9.67
72307;PMS5003;60257;42.638;23.376;2023-05-10T00:46:47;18.67;18.33;10.33
72307;PMS5003;60257;42.638;23.376;2023-05-10T00:49:14;18.33;17.00;11.67
72307;PMS5003;60257;42.638;23.376;2023-05-10T00:51:42;16.33;15.33;11.33
72307;PMS5003;60257;42.638;23.376;2023-05-10T00:54:12;17.33;16.00;9.67
72307;PMS5003;60257;42.638;23.376;2023-05-10T00:56:39;17.67;15.67;9.33
72307;PMS5003;60257;42.638;23.376;2023-05-10T00:59:06;17.33;17.33;11.67
72307;PMS5003;60257;42.638;23.376;2023-05-10T01:01:33;20.00;16.33;10.00
72307;PMS5003;60257;42.638;23.376;2023-05-10T01:03:58;22.00;22.00;12.67
72307;PMS5003;60257;42.638;23.376;2023-05-10T01:06:24;17.00;17.00;10.00
72307;PMS5003;60257;42.638;23.376;2023-05-10T01:08:50;18.00;17.00;9.67
72307;PMS5003;60257;42.638;23.376;2023-05-10T01:11:15;24.33;21.67;13.33
72307;PMS5003;60257;42.638;23.376;2023-05-10T01:13:41;20.33;20.33;13.00
72307;PMS5003;60257;42.638;23.376;2023-05-10T01:16:09;19.33;19.33;11.33
72307;PMS5003;60257;42.638;23.376;2023-05-10T01:18:36;20.33;18.67;11.33
72307;PMS5003;60257;42.638;23.376;2023-05-10T01:35:06;15.67;15.67;9.00
72307;PMS5003;60257;42.638;23.376;2023-05-10T01:37:42;19.00;19.00;10.33
72307;PMS5003;60257;42.638;23.376;2023-05-10T01:40:17;15.33;15.33;8.67
72307;PMS5003;60257;42.638;23.376;2023-05-10T01:42:52;13.33;13.33;9.33
72307;PMS5003;60257;42.638;23.376;2023-05-10T01:45:41;13.00;13.00;10.00
72307;PMS5003;60257;42.638;23.376;2023-05-10T01:48:19;14.33;13.33;7.33
72307;PMS5003;60257;42.638;23.376;2023-05-10T01:50:47;15.00;15.00;8.67
72307;PMS5003;60257;42.638;23.376;2023-05-10T01:53:17;17.00;17.00;11.33
72307;PMS5003;60257;42.638;23.376;2023-05-10T01:55:46;18.00;15.33;10.00
72307;PMS5003;60257;42.638;23.376;2023-05-10T01:58:32;15.33;15.33;10.67
72307;PMS5003;60257;42.638;23.376;2023-05-10T02:01:01;17.67;17.00;12.00
72307;PMS5003;60257;42.638;23.376;2023-05-10T02:03:29;21.00;19.67;10.67
72307;PMS5003;60257;42.638;23.376;2023-05-10T02:05:57;18.33;15.33;9.00
72307;PMS5003;60257;42.638;23.376;2023-05-10T02:08:24;18.33;16.33;9.00
72307;PMS5003;60257;42.638;23.376;2023-05-10T02:10:51;14.00;13.67;9.00
72307;PMS5003;60257;42.638;23.376;2023-05-10T02:13:18;15.33;15.33;10.67
72307;PMS5003;60257;42.638;23.376;2023-05-10T02:15:46;19.33;18.33;12.00
72307;PMS5003;60257;42.638;23.376;2023-05-10T02:18:13;16.67;16.67;10.67
72307;PMS5003;60257;42.638;23.376;2023-05-10T02:20:40;19.33;18.33;11.67
72307;PMS5003;60257;42.638;23.376;2023-05-10T02:23:08;19.00;19.00;13.33
72307;PMS5003;60257;42.638;23.376;2023-05-10T02:25:36;17.67;17.33;11.67
72307;PMS5003;60257;42.638;23.376;2023-05-10T02:28:04;15.33;15.33;9.00
72307;PMS5003;60257;42.638;23.376;2023-05-10T02:30:31;12.00;12.00;11.00
72307;PMS5003;60257;42.638;23.376;2023-05-10T02:32:59;21.00;19.67;12.00
72307;PMS5003;60257;42.638;23.376;2023-05-10T02:35:26;19.00;17.00;8.67
72307;PMS5003;60257;42.638;23.376;2023-05-10T02:37:52;19.00;17.00;9.00
72307;PMS5003;60257;42.638;23.376;2023-05-10T02:40:19;19.00;19.00;12.00
72307;PMS5003;60257;42.638;23.376;2023-05-10T02:42:47;20.67;18.67;13.00
72307;PMS5003;60257;42.638;23.376;2023-05-10T02:45:16;14.33;14.33;8.67
72307;PMS5003;60257;42.638;23.376;2023-05-10T02:47:46;16.00;14.00;9.00
72307;PMS5003;60257;42.638;23.376;2023-05-10T02:50:11;22.00;21.00;12.00
72307;PMS5003;60257;42.638;23.376;2023-05-10T02:52:47;14.00;13.00;6.33
72307;PMS5003;60257;42.638;23.376;2023-05-10T02:55:20;21.00;21.00;12.00
72307;PMS5003;60257;42.638;23.376;2023-05-10T02:58:00;18.33;17.00;11.00
72307;PMS5003;60257;42.638;23.376;2023-05-10T03:00:26;17.67;16.33;12.00
72307;PMS5003;60257;42.638;23.376;2023-05-10T03:02:52;16.67;16.67;8.67
72307;PMS5003;60257;42.638;23.376;2023-05-10T03:05:18;17.00;17.00;11.00
72307;PMS5003;60257;42.638;23.376;2023-05-10T03:07:44;20.33;18.00;11.33
72307;PMS5003;60257;42.638;23.376;2023-05-10T03:10:11;22.00;21.67;13.00
72307;PMS5003;60257;42.638;23.376;2023-05-10T03:18:22;17.67;17.67;11.33
72307;PMS5003;60257;42.638;23.376;2023-05-10T03:21:10;18.67;17.00;11.00
72307;PMS5003;60257;42.638;23.376;2023-05-10T03:24:11;16.67;15.33;8.33
72307;PMS5003;60257;42.638;23.376;2023-05-10T03:26:34;19.00;19.00;9.00
72307;PMS5003;60257;42.638;23.376;2023-05-10T03:29:00;16.00;13.67;8.33
72307;PMS5003;60257;42.638;23.376;2023-05-10T03:31:27;12.67;11.67;6.67
72307;PMS5003;60257;42.638;23.376;2023-05-10T03:33:52;17.33;17.33;12.00
72307;PMS5003;60257;42.638;23.376;2023-05-10T03:36:18;18.00;16.00;10.33
72307;PMS5003;60257;42.638;23.376;2023-05-10T03:38:44;16.33;16.33;8.00
72307;PMS5003;60257;42.638;23.376;2023-05-10T03:41:10;12.33;12.33;5.67
72307;PMS5003;60257;42.638;23.376;2023-05-10T03:43:36;16.33;13.67;9.67
72307;PMS5003;60257;42.638;23.376;2023-05-10T03:46:02;13.33;13.33;8.33
72307;PMS5003;60257;42.638;23.376;2023-05-10T03:48:28;17.33;15.00;9.33
72307;PMS5003;60257;42.638;23.376;2023-05-10T03:50:53;15.67;15.67;7.00
72307;PMS5003;60257;42.638;23.376;2023-05-10T03:53:19;12.33;12.00;6.67
72307;PMS5003;60257;42.638;23.376;2023-05-10T03:55:45;20.33;17.33;10.67
72307;PMS5003;60257;42.638;23.376;2023-05-10T03:58:11;16.67;15.00;9.33
72307;PMS5003;60257;42.638;23.376;2023-05-10T04:00:36;16.67;16.67;11.00
72307;PMS5003;60257;42.638;23.376;2023-05-10T04:03:02;17.00;16.00;9.33
72307;PMS5003;60257;42.638;23.376;2023-05-10T04:05:28;19.00;19.00;12.00
72307;PMS5003;60257;42.638;23.376;2023-05-10T04:07:53;16.33;16.00;11.67
72307;PMS5003;60257;42.638;23.376;2023-05-10T04:10:19;17.67;16.67;11.00
72307;PMS5003;60257;42.638;23.376;2023-05-10T04:12:46;17.00;16.67;10.67
72307;PMS5003;60257;42.638;23.376;2023-05-10T04:15:11;18.33;17.33;9.67
72307;PMS5003;60257;42.638;23.376;2023-05-10T04:17:37;20.00;17.00;9.00
72307;PMS5003;60257;42.638;23.376;2023-05-10T04:20:02;16.00;16.00;11.00
72307;PMS5003;60257;42.638;23.376;2023-05-10T04:22:28;15.33;15.33;9.00
72307;PMS5003;60257;42.638;23.376;2023-05-10T04:24:54;18.67;18.67;13.33
72307;PMS5003;60257;42.638;23.376;2023-05-10T04:27:19;18.00;18.00;9.67
72307;PMS5003;60257;42.638;23.376;2023-05-10T04:29:45;13.67;13.67;11.67
72307;PMS5003;60257;42.638;23.376;2023-05-10T04:32:10;14.00;14.00;9.00
72307;PMS5003;60257;42.638;23.376;2023-05-10T04:34:36;11.67;11.33;7.67
72307;PMS5003;60257;42.638;23.376;2023-05-10T04:37:02;15.00;14.67;10.67
72307;PMS5003;60257;42.638;23.376;2023-05-10T04:39:28;17.67;16.33;11.00
72307;PMS5003;60257;42.638;23.376;2023-05-10T04:41:54;20.67;20.67;12.00
72307;PMS5003;60257;42.638;23.376;2023-05-10T04:44:19;20.00;19.00;12.33
72307;PMS5003;60257;42.638;23.376;2023-05-10T04:46:45;20.33;20.33;13.33
72307;PMS5003;60257;42.638;23.376;2023-05-10T04:49:10;19.00;17.00;11.00
72307;PMS5003;60257;42.638;23.376;2023-05-10T04:51:36;19.33;19.33;13.67
72307;PMS5003;60257;42.638;23.376;2023-05-10T04:54:02;21.33;20.00;12.00
72307;PMS5003;60257;42.638;23.376;2023-05-10T04:56:27;15.33;15.33;9.67
72307;PMS5003;60257;42.638;23.376;2023-05-10T04:58:53;19.33;16.33;10.33
72307;PMS5003;60257;42.638;23.376;2023-05-10T05:01:18;15.33;15.33;10.00
72307;PMS5003;60257;42.638;23.376;2023-05-10T05:03:44;14.00;13.00;10.00
72307;PMS5003;60257;42.638;23.376;2023-05-10T05:06:10;19.33;19.33;12.33
72307;PMS5003;60257;42.638;23.376;2023-05-10T05:08:35;20.00;20.00;12.00
72307;PMS5003;60257;42.638;23.376;2023-05-10T05:11:00;28.00;28.00;19.00
72307;PMS5003;60257;42.638;23.376;2023-05-10T05:13:26;23.33;21.33;13.00
72307;PMS5003;60257;42.638;23.376;2023-05-10T05:15:51;19.00;19.00;12.67
72307;PMS5003;60257;42.638;23.376;2023-05-10T05:18:17;20.33;18.33;13.33
72307;PMS5003;60257;42.638;23.376;2023-05-10T05:20:42;19.00;17.67;12.67
72307;PMS5003;60257;42.638;23.376;2023-05-10T05:23:08;20.33;19.33;12.33
72307;PMS5003;60257;42.638;23.376;2023-05-10T05:25:33;18.67;18.67;13.00
72307;PMS5003;60257;42.638;23.376;2023-05-10T05:27:59;26.00;23.00;15.00
72307;PMS5003;60257;42.638;23.376;2023-05-10T05:30:24;22.33;20.67;13.00
72307;PMS5003;60257;42.638;23.376;2023-05-10T05:32:50;23.67;23.67;14.00
72307;PMS5003;60257;42.638;23.376;2023-05-10T05:35:16;15.00;12.33;4.67
72307;PMS5003;60257;42.638;23.376;2023-05-10T05:37:41;19.67;19.33;13.00
72307;PMS5003;60257;42.638;23.376;2023-05-10T05:40:07;24.00;22.00;13.33
72307;PMS5003;60257;42.638;23.376;2023-05-10T05:42:33;25.00;24.00;15.00
72307;PMS5003;60257;42.638;23.376;2023-05-10T05:44:58;24.00;24.00;15.33
72307;PMS5003;60257;42.638;23.376;2023-05-10T05:47:24;20.00;19.00;13.00
72307;PMS5003;60257;42.638;23.376;2023-05-10T05:49:49;19.33;17.33;11.33
72307;PMS5003;60257;42.638;23.376;2023-05-10T05:52:15;23.00;23.00;13.33
72307;PMS5003;60257;42.638;23.376;2023-05-10T05:54:40;22.00;22.00;14.33
72307;PMS5003;60257;42.638;23.376;2023-05-10T05:57:06;25.67;23.67;13.33
72307;PMS5003;60257;42.638;23.376;2023-05-10T05:59:32;27.00;26.00;17.67
72307;PMS5003;60257;42.638;23.376;2023-05-10T06:01:58;32.00;27.67;18.00
72307;PMS5003;60257;42.638;23.376;2023-05-10T06:04:23;33.00;30.33;17.67
72307;PMS5003;60257;42.638;23.376;2023-05-10T06:06:49;29.33;29.33;19.00
72307;PMS5003;60257;42.638;23.376;2023-05-10T06:09:14;31.33;30.33;18.33
72307;PMS5003;60257;42.638;23.376;2023-05-10T06:11:40;22.67;22.67;13.67
72307;PMS5003;60257;42.638;23.376;2023-05-10T06:14:05;24.33;23.00;14.00
72307;PMS5003;60257;42.638;23.376;2023-05-10T06:16:33;20.67;20.67;12.00
72307;PMS5003;60257;42.638;23.376;2023-05-10T06:18:59;25.00;22.00;14.33
72307;PMS5003;60257;42.638;23.376;2023-05-10T06:21:25;24.00;23.33;14.00
72307;PMS5003;60257;42.638;23.376;2023-05-10T06:23:50;25.00;24.67;13.33
72307;PMS5003;60257;42.638;23.376;2023-05-10T06:26:16;27.00;24.33;16.33
72307;PMS5003;60257;42.638;23.376;2023-05-10T06:28:41;22.33;21.33;15.00
72307;PMS5003;60257;42.638;23.376;2023-05-10T06:31:07;25.00;25.00;13.00
72307;PMS5003;60257;42.638;23.376;2023-05-10T06:33:33;27.67;27.00;18.00
72307;PMS5003;60257;42.638;23.376;2023-05-10T06:35:58;26.33;25.33;14.33
72307;PMS5003;60257;42.638;23.376;2023-05-10T06:38:24;24.33;22.33;14.67
72307;PMS5003;60257;42.638;23.376;2023-05-10T06:40:50;29.33;27.67;15.33
72307;PMS5003;60257;42.638;23.376;2023-05-10T06:43:16;32.33;31.00;19.33
72307;PMS5003;60257;42.638;23.376;2023-05-10T06:45:42;25.67;22.00;14.33
72307;PMS5003;60257;42.638;23.376;2023-05-10T06:48:07;20.00;18.33;12.00
72307;PMS5003;60257;42.638;23.376;2023-05-10T06:50:33;26.00;25.33;14.00
72307;PMS5003;60257;42.638;23.376;2023-05-10T06:52:59;27.00;24.67;16.00
72307;PMS5003;60257;42.638;23.376;2023-05-10T06:55:26;30.00;26.00;17.00
72307;PMS5003;60257;42.638;23.376;2023-05-10T06:57:52;20.67;19.00;11.00
72307;PMS5003;60257;42.638;23.376;2023-05-10T07:00:18;25.67;24.00;15.00
72307;PMS5003;60257;42.638;23.376;2023-05-10T07:02:45;29.00;27.00;17.33
72307;PMS5003;60257;42.638;23.376;2023-05-10T07:05:10;30.67;29.00;16.67
72307;PMS5003;60257;42.638;23.376;2023-05-10T07:07:36;27.00;26.33;17.33
72307;PMS5003;60257;42.638;23.376;2023-05-10T07:10:02;25.00;25.00;16.00
72307;PMS5003;60257;42.638;23.376;2023-05-10T07:12:28;28.33;28.00;17.00
72307;PMS5003;60257;42.638;23.376;2023-05-10T07:14:53;25.67;25.67;16.00
72307;PMS5003;60257;42.638;23.376;2023-05-10T07:17:19;25.33;25.33;15.33
72307;PMS5003;60257;42.638;23.376;2023-05-10T07:19:44;34.67;34.33;22.00
72307;PMS5003;60257;42.638;23.376;2023-05-10T07:22:10;31.33;27.67;15.67
72307;PMS5003;60257;42.638;23.376;2023-05-10T07:24:35;28.00;27.33;15.00
72307;PMS5003;60257;42.638;23.376;2023-05-10T07:27:01;21.00;20.67;14.67
72307;PMS5003;60257;42.638;23.376;2023-05-10T07:29:27;31.00;31.00;18.00
72307;PMS5003;60257;42.638;23.376;2023-05-10T07:31:53;29.00;27.00;15.33
72307;PMS5003;60257;42.638;23.376;2023-05-10T07:34:19;27.00;26.33;16.00
72307;PMS5003;60257;42.638;23.376;2023-05-10T07:36:44;29.67;29.67;15.00
72307;PMS5003;60257;42.638;23.376;2023-05-10T07:39:09;27.00;26.00;16.00
72307;PMS5003;60257;42.638;23.376;2023-05-10T07:41:35;27.33;27.00;14.33
72307;PMS5003;60257;42.638;23.376;2023-05-10T07:44:02;24.67;24.00;18.00
72307;PMS5003;60257;42.638;23.376;2023-05-10T07:46:28;31.00;30.33;17.33
72307;PMS5003;60257;42.638;23.376;2023-05-10T07:48:54;34.00;33.00;19.67
72307;PMS5003;60257;42.638;23.376;2023-05-10T07:51:20;30.00;30.00;20.33
72307;PMS5003;60257;42.638;23.376;2023-05-10T07:53:46;33.00;32.33;19.00
72307;PMS5003;60257;42.638;23.376;2023-05-10T07:56:24;29.67;28.00;17.67
72307;PMS5003;60257;42.638;23.376;2023-05-10T07:58:54;29.67;29.67;16.00
72307;PMS5003;60257;42.638;23.376;2023-05-10T08:01:20;24.33;23.00;13.00
72307;PMS5003;60257;42.638;23.376;2023-05-10T08:03:47;33.00;31.67;20.67
72307;PMS5003;60257;42.638;23.376;2023-05-10T08:06:13;33.00;32.00;20.67
72307;PMS5003;60257;42.638;23.376;2023-05-10T08:08:40;29.67;29.67;20.67
72307;PMS5003;60257;42.638;23.376;2023-05-10T08:11:06;33.00;32.67;21.00
72307;PMS5003;60257;42.638;23.376;2023-05-10T08:13:31;27.00;27.00;15.00
72307;PMS5003;60257;42.638;23.376;2023-05-10T08:15:57;29.33;28.00;19.00
72307;PMS5003;60257;42.638;23.376;2023-05-10T08:18:22;30.33;29.00;17.00
72307;PMS5003;60257;42.638;23.376;2023-05-10T08:20:48;22.67;22.67;16.67
72307;PMS5003;60257;42.638;23.376;2023-05-10T08:23:13;28.00;28.00;17.00
72307;PMS5003;60257;42.638;23.376;2023-05-10T08:25:38;32.00;28.67;17.00
72307;PMS5003;60257;42.638;23.376;2023-05-10T08:28:04;26.33;26.00;17.33
72307;PMS5003;60257;42.638;23.376;2023-05-10T08:30:29;30.67;28.67;18.33
72307;PMS5003;60257;42.638;23.376;2023-05-10T08:32:55;32.00;32.00;20.00
72307;PMS5003;60257;42.638;23.376;2023-05-10T08:35:20;29.33;29.33;16.67
72307;PMS5003;60257;42.638;23.376;2023-05-10T08:37:46;29.00;28.00;17.00
72307;PMS5003;60257;42.638;23.376;2023-05-10T08:40:11;35.33;31.33;18.33
72307;PMS5003;60257;42.638;23.376;2023-05-10T08:42:39;36.33;34.33;20.00
72307;PMS5003;60257;42.638;23.376;2023-05-10T08:45:08;28.00;28.00;15.33
72307;PMS5003;60257;42.638;23.376;2023-05-10T08:47:36;29.00;28.67;18.33
72307;PMS5003;60257;42.638;23.376;2023-05-10T08:50:03;29.67;28.33;18.00
72307;PMS5003;60257;42.638;23.376;2023-05-10T08:52:28;27.67;26.67;19.67
72307;PMS5003;60257;42.638;23.376;2023-05-10T08:54:56;25.00;25.00;15.33
72307;PMS5003;60257;42.638;23.376;2023-05-10T08:57:22;29.67;29.67;18.67
72307;PMS5003;60257;42.638;23.376;2023-05-10T08:59:47;34.67;30.67;19.00
72307;PMS5003;60257;42.638;23.376;2023-05-10T09:02:13;21.67;20.00;16.00
72307;PMS5003;60257;42.638;23.376;2023-05-10T09:04:39;28.00;28.00;16.67
72307;PMS5003;60257;42.638;23.376;2023-05-10T09:07:06;22.67;22.00;14.33
72307;PMS5003;60257;42.638;23.376;2023-05-10T09:09:32;29.67;28.33;18.00
72307;PMS5003;60257;42.638;23.376;2023-05-10T09:11:58;28.67;26.00;17.67
72307;PMS5003;60257;42.638;23.376;2023-05-10T09:14:24;27.33;27.00;17.00
72307;PMS5003;60257;42.638;23.376;2023-05-10T09:16:50;28.33;27.33;19.00
72307;PMS5003;60257;42.638;23.376;2023-05-10T09:19:16;28.00;28.00;17.00
72307;PMS5003;60257;42.638;23.376;2023-05-10T09:21:42;28.67;26.33;16.00
72307;PMS5003;60257;42.638;23.376;2023-05-10T09:24:08;30.00;28.00;17.67
72307;PMS5003;60257;42.638;23.376;2023-05-10T09:26:34;36.67;33.33;20.00
72307;PMS5003;60257;42.638;23.376;2023-05-10T09:29:00;40.67;37.00;21.67
72307;PMS5003;60257;42.638;23.376;2023-05-10T09:31:43;30.67;28.67;17.33
72307;PMS5003;60257;42.638;23.376;2023-05-10T09:34:19;38.00;34.00;23.00
72307;PMS5003;60257;42.638;23.376;2023-05-10T09:36:56;28.33;28.33;16.67
72307;PMS5003;60257;42.638;23.376;2023-05-10T09:39:32;33.00;32.00;19.33
72307;PMS5003;60257;42.638;23.376;2023-05-10T09:42:05;31.00;31.00;21.33
72307;PMS5003;60257;42.638;23.376;2023-05-10T09:44:32;28.00;28.00;18.00
72307;PMS5003;60257;42.638;23.376;2023-05-10T09:47:00;30.33;30.33;18.00
72307;PMS5003;60257;42.638;23.376;2023-05-10T09:49:26;28.33;28.33;19.67
72307;PMS5003;60257;42.638;23.376;2023-05-10T09:52:01;34.33;33.00;19.33
72307;PMS5003;60257;42.638;23.376;2023-05-10T09:54:28;32.67;28.67;18.00
72307;PMS5003;60257;42.638;23.376;2023-05-10T09:56:54;30.00;29.00;14.00
72307;PMS5003;60257;42.638;23.376;2023-05-10T09:59:19;18.67;18.67;16.33
72307;PMS5003;60257;42.638;23.376;2023-05-10T10:01:51;26.33;25.00;16.00
72307;PMS5003;60257;42.638;23.376;2023-05-10T10:04:17;34.00;33.00;21.00
72307;PMS5003;60257;42.638;23.376;2023-05-10T10:06:44;35.33;33.00;19.00
72307;PMS5003;60257;42.638;23.376;2023-05-10T10:09:10;27.00;25.00;17.67
72307;PMS5003;60257;42.638;23.376;2023-05-10T10:11:36;22.33;19.33;10.00
72307;PMS5003;60257;42.638;23.376;2023-05-10T10:14:03;28.00;28.00;17.00
72307;PMS5003;60257;42.638;23.376;2023-05-10T10:16:29;23.33;23.00;16.33
72307;PMS5003;60257;42.638;23.376;2023-05-10T10:18:56;28.00;28.00;18.33
72307;PMS5003;60257;42.638;23.376;2023-05-10T10:21:22;23.67;23.67;16.33
72307;PMS5003;60257;42.638;23.376;2023-05-10T10:23:48;27.67;26.33;17.00
72307;PMS5003;60257;42.638;23.376;2023-05-10T10:26:13;27.67;27.67;20.33
72307;PMS5003;60257;42.638;23.376;2023-05-10T10:28:51;31.33;29.00;19.00
72307;PMS5003;60257;42.638;23.376;2023-05-10T10:34:26;28.67;27.67;19.00
72307;PMS5003;60257;42.638;23.376;2023-05-10T10:36:53;27.67;24.33;17.00
72307;PMS5003;60257;42.638;23.376;2023-05-10T10:39:20;18.67;18.67;14.00
72307;PMS5003;60257;42.638;23.376;2023-05-10T10:41:50;24.67;23.00;16.67
72307;PMS5003;60257;42.638;23.376;2023-05-10T10:44:24;31.00;31.00;20.33
72307;PMS5003;60257;42.638;23.376;2023-05-10T10:49:38;29.33;29.33;18.00
72307;PMS5003;60257;42.638;23.376;2023-05-10T10:52:20;26.00;26.00;18.00
72307;PMS5003;60257;42.638;23.376;2023-05-10T10:54:49;22.00;20.67;13.67
72307;PMS5003;60257;42.638;23.376;2023-05-10T10:57:17;27.67;27.00;18.33
72307;PMS5003;60257;42.638;23.376;2023-05-10T10:59:44;27.33;25.33;16.67
72307;PMS5003;60257;42.638;23.376;2023-05-10T11:02:10;24.00;24.00;17.33
72307;PMS5003;60257;42.638;23.376;2023-05-10T11:05:22;28.33;25.67;17.33
72307;PMS5003;60257;42.638;23.376;2023-05-10T11:10:23;25.33;25.00;16.33
72307;PMS5003;60257;42.638;23.376;2023-05-10T11:12:59;22.00;22.00;14.33
72307;PMS5003;60257;42.638;23.376;2023-05-10T11:15:32;21.00;20.67;15.00
72307;PMS5003;60257;42.638;23.376;2023-05-10T11:17:59;25.00;23.67;15.33
72307;PMS5003;60257;42.638;23.376;2023-05-10T11:20:41;23.33;23.00;16.00
72307;PMS5003;60257;42.638;23.376;2023-05-10T11:23:11;28.00;24.67;15.67
72307;PMS5003;60257;42.638;23.376;2023-05-10T11:25:44;24.33;22.33;15.00
72307;PMS5003;60257;42.638;23.376;2023-05-10T11:28:10;23.33;21.33;13.33
72307;PMS5003;60257;42.638;23.376;2023-05-10T11:30:38;23.67;22.00;14.00
72307;PMS5003;60257;42.638;23.376;2023-05-10T11:33:05;27.00;24.00;15.67
72307;PMS5003;60257;42.638;23.376;2023-05-10T11:35:31;28.33;26.33;18.67
72307;PMS5003;60257;42.638;23.376;2023-05-10T11:38:05;23.00;21.67;14.00
72307;PMS5003;60257;42.638;23.376;2023-05-10T11:40:31;25.00;24.00;18.67
72307;PMS5003;60257;42.638;23.376;2023-05-10T11:42:56;27.67;23.00;13.33
72307;PMS5003;60257;42.638;23.376;2023-05-10T11:45:23;29.00;27.67;16.00
72307;PMS5003;60257;42.638;23.376;2023-05-10T11:47:49;28.00;26.67;17.00
72307;PMS5003;60257;42.638;23.376;2023-05-10T11:50:15;28.00;28.00;19.00
72307;PMS5003;60257;42.638;23.376;2023-05-10T11:52:41;30.00;28.33;15.67
72307;PMS5003;60257;42.638;23.376;2023-05-10T11:55:07;25.00;24.67;16.67
72307;PMS5003;60257;42.638;23.376;2023-05-10T11:57:32;29.00;26.67;18.00
72307;PMS5003;60257;42.638;23.376;2023-05-10T11:59:58;28.00;28.00;19.00
72307;PMS5003;60257;42.638;23.376;2023-05-10T12:02:24;29.00;26.00;19.00
72307;PMS5003;60257;42.638;23.376;2023-05-10T12:04:50;27.00;26.00;17.00
72307;PMS5003;60257;42.638;23.376;2023-05-10T12:07:16;25.67;24.67;19.33
72307;PMS5003;60257;42.638;23.376;2023-05-10T12:10:01;26.33;26.33;18.33
72307;PMS5003;60257;42.638;23.376;2023-05-10T12:15:10;28.33;26.67;17.00
72307;PMS5003;60257;42.638;23.376;2023-05-10T12:17:37;26.67;24.33;14.67
72307;PMS5003;60257;42.638;23.376;2023-05-10T12:20:20;15.00;15.00;11.00
72307;PMS5003;60257;42.638;23.376;2023-05-10T12:22:50;27.33;26.00;15.67
72307;PMS5003;60257;42.638;23.376;2023-05-10T12:25:17;20.33;19.33;16.00
72307;PMS5003;60257;42.638;23.376;2023-05-10T12:27:48;24.00;24.00;16.00
72307;PMS5003;60257;42.638;23.376;2023-05-10T12:30:23;23.00;23.00;15.67
72307;PMS5003;60257;42.638;23.376;2023-05-10T12:32:50;34.67;32.33;20.67
72307;PMS5003;60257;42.638;23.376;2023-05-10T12:35:16;25.33;24.67;15.67
72307;PMS5003;60257;42.638;23.376;2023-05-10T12:37:43;21.33;18.67;9.00
72307;PMS5003;60257;42.638;23.376;2023-05-10T12:40:09;25.00;22.00;13.67
72307;PMS5003;60257;42.638;23.376;2023-05-10T12:42:36;20.67;19.00;14.00
72307;PMS5003;60257;42.638;23.376;2023-05-10T12:45:03;21.33;21.33;14.00
72307;PMS5003;60257;42.638;23.376;2023-05-10T12:47:29;21.67;20.67;13.00
72307;PMS5003;60257;42.638;23.376;2023-05-10T12:49:55;19.00;19.00;14.33
72307;PMS5003;60257;42.638;23.376;2023-05-10T12:52:20;24.00;22.00;14.00
72307;PMS5003;60257;42.638;23.376;2023-05-10T12:54:46;30.00;29.00;20.00
72307;PMS5003;60257;42.638;23.376;2023-05-10T12:57:12;26.33;26.33;16.67
72307;PMS5003;60257;42.638;23.376;2023-05-10T12:59:38;30.33;26.67;18.67
72307;PMS5003;60257;42.638;23.376;2023-05-10T13:02:04;22.33;21.00;12.00
72307;PMS5003;60257;42.638;23.376;2023-05-10T13:04:30;18.67;17.00;11.00
72307;PMS5003;60257;42.638;23.376;2023-05-10T13:06:55;23.00;22.67;15.00
72307;PMS5003;60257;42.638;23.376;2023-05-10T13:09:27;25.00;22.67;13.00
72307;PMS5003;60257;42.638;23.376;2023-05-10T13:11:55;22.33;22.00;15.67
72307;PMS5003;60257;42.638;23.376;2023-05-10T13:14:21;24.67;21.67;13.00
72307;PMS5003;60257;42.638;23.376;2023-05-10T13:16:46;26.33;23.33;13.33
72307;PMS5003;60257;42.638;23.376;2023-05-10T13:19:12;27.33;26.00;18.67
72307;PMS5003;60257;42.638;23.376;2023-05-10T13:21:39;20.00;16.67;9.00
72307;PMS5003;60257;42.638;23.376;2023-05-10T13:24:06;21.67;19.67;12.67
72307;PMS5003;60257;42.638;23.376;2023-05-10T13:26:32;20.33;20.33;13.00
72307;PMS5003;60257;42.638;23.376;2023-05-10T13:28:58;22.33;21.33;14.67
72307;PMS5003;60257;42.638;23.376;2023-05-10T13:31:24;22.67;20.00;14.00
72307;PMS5003;60257;42.638;23.376;2023-05-10T13:33:50;23.00;20.67;13.67
72307;PMS5003;60257;42.638;23.376;2023-05-10T13:36:15;22.33;22.33;14.00
72307;PMS5003;60257;42.638;23.376;2023-05-10T13:38:41;22.33;21.33;12.00
72307;PMS5003;60257;42.638;23.376;2023-05-10T13:41:06;22.00;18.67;13.00
72307;PMS5003;60257;42.638;23.376;2023-05-10T13:43:32;18.67;18.67;11.33
72307;PMS5003;60257;42.638;23.376;2023-05-10T13:45:57;25.67;25.33;15.00
72307;PMS5003;60257;42.638;23.376;2023-05-10T13:48:23;25.00;23.00;15.00
72307;PMS5003;60257;42.638;23.376;2023-05-10T13:50:48;24.33;24.33;15.33
72307;PMS5003;60257;42.638;23.376;2023-05-10T13:53:14;27.00;23.67;16.00
72307;PMS5003;60257;42.638;23.376;2023-05-10T13:55:39;29.33;29.00;20.33
72307;PMS5003;60257;42.638;23.376;2023-05-10T13:58:05;27.67;27.00;16.33
72307;PMS5003;60257;42.638;23.376;2023-05-10T14:00:30;38.00;35.00;22.33
72307;PMS5003;60257;42.638;23.376;2023-05-10T14:02:56;23.67;23.67;14.00
72307;PMS5003;60257;42.638;23.376;2023-05-10T14:05:21;14.67;14.67;11.00
72307;PMS5003;60257;42.638;23.376;2023-05-10T14:07:48;20.33;19.67;13.00